Time;durP1;ratioP1;P1;durP2;ratioP2;P2;SDS_P1;SDS_P2;PMS_P1;PMS_P2;Temp;Humidity;BMP_temperature;BMP_pressure;BME280_temperature;BME280_humidity;BME280_pressure;Samples;Min_cycle;Max_cycle;Signal;HPM_P1;HPM_P2
2021/08/03 00:01:36;;;;;;;2.03;1.42;;;12.10;99.90;;;;;;5109595;27;20031;-66
2021/08/03 00:04:10;;;;;;;1.65;1.40;;;12.10;99.90;;;;;;5118720;27;20436;-66
2021/08/03 00:06:42;;;;;;;1.40;1.30;;;12.00;99.90;;;;;;5119069;27;20039;-66
2021/08/03 00:09:09;;;;;;;1.27;1.17;;;12.10;99.90;;;;;;5130718;27;20057;-66
2021/08/03 00:11:41;;;;;;;2.08;1.23;;;12.00;99.90;;;;;;5110944;27;20538;-66
2021/08/03 00:14:08;;;;;;;1.25;1.10;;;12.00;99.90;;;;;;5119774;27;20050;-66
2021/08/03 00:16:36;;;;;;;1.30;1.20;;;12.00;99.90;;;;;;5122540;27;20073;-66
2021/08/03 00:19:01;;;;;;;1.33;1.23;;;11.90;99.90;;;;;;5127224;27;20106;-66
2021/08/03 00:21:27;;;;;;;2.00;1.23;;;11.90;99.90;;;;;;5118073;27;20715;-66
2021/08/03 00:23:55;;;;;;;1.85;1.33;;;11.90;99.90;;;;;;5122890;27;20651;-66
2021/08/03 00:26:20;;;;;;;4.30;1.20;;;11.90;99.90;;;;;;5120692;27;20122;-66
2021/08/03 00:28:49;;;;;;;2.45;1.25;;;11.80;99.90;;;;;;5121050;27;20519;-66
2021/08/03 00:31:17;;;;;;;1.55;1.40;;;11.80;99.90;;;;;;5113985;27;20039;-66
2021/08/03 00:33:45;;;;;;;2.20;1.50;;;11.80;99.90;;;;;;5128126;27;20049;-66
2021/08/03 00:36:12;;;;;;;2.00;1.70;;;11.70;99.90;;;;;;5132104;27;20053;-66
2021/08/03 00:38:37;;;;;;;1.23;1.13;;;11.70;99.90;;;;;;5131566;27;20118;-66
2021/08/03 00:41:07;;;;;;;1.15;1.05;;;11.70;99.90;;;;;;5113749;27;20438;-66
2021/08/03 00:43:33;;;;;;;1.35;1.02;;;11.70;99.90;;;;;;5099486;27;20043;-66
2021/08/03 00:45:58;;;;;;;2.28;1.20;;;11.70;99.90;;;;;;5130237;27;20111;-66
2021/08/03 00:48:24;;;;;;;1.50;0.90;;;11.70;99.90;;;;;;5130067;27;20094;-66
2021/08/03 00:50:50;;;;;;;1.33;1.23;;;11.60;99.90;;;;;;5130006;27;20031;-66
2021/08/03 00:53:16;;;;;;;0.93;0.93;;;11.60;99.90;;;;;;5124560;27;20047;-66
2021/08/03 00:55:42;;;;;;;1.13;1.00;;;11.60;99.90;;;;;;5129544;27;20391;-66
2021/08/03 00:58:10;;;;;;;1.27;1.17;;;11.60;99.90;;;;;;5118491;27;20031;-66
2021/08/03 01:00:36;;;;;;;2.60;1.20;;;11.50;99.90;;;;;;5122770;27;20499;-66
2021/08/03 01:03:02;;;;;;;1.55;1.05;;;11.50;99.90;;;;;;5119057;27;20066;-66
2021/08/03 01:05:34;;;;;;;1.08;0.98;;;11.50;99.90;;;;;;5106853;28;20107;-66
2021/08/03 01:08:19;;;;;;;1.33;0.88;;;11.50;99.90;;;;;;5123600;27;20031;-66
2021/08/03 01:11:10;;;;;;;1.67;1.00;;;11.40;99.90;;;;;;5130681;27;20038;-66
2021/08/03 01:13:55;;;;;;;2.03;1.10;;;11.40;99.90;;;;;;5130905;27;20051;-66
2021/08/03 01:16:34;;;;;;;1.77;1.13;;;11.40;99.90;;;;;;5125485;27;20038;-66
2021/08/03 01:19:18;;;;;;;1.27;1.00;;;11.40;99.90;;;;;;5127725;27;20035;-66
2021/08/03 01:21:50;;;;;;;1.10;1.10;;;11.30;99.90;;;;;;5120817;27;20450;-66
2021/08/03 01:24:21;;;;;;;1.10;1.00;;;11.30;99.90;;;;;;5131045;27;20465;-66
2021/08/03 01:27:24;;;;;;;0.68;0.68;;;11.20;99.90;;;;;;5122636;27;20044;-66
2021/08/03 01:29:51;;;;;;;0.70;0.70;;;11.20;99.90;;;;;;5118561;27;20039;-66
2021/08/03 01:32:24;;;;;;;0.90;0.60;;;11.20;99.90;;;;;;5129852;27;20077;-66
2021/08/03 01:34:51;;;;;;;0.85;0.80;;;11.20;99.90;;;;;;5113794;28;20035;-66
2021/08/03 01:37:19;;;;;;;1.10;0.73;;;11.10;99.90;;;;;;5127127;27;20517;-66
2021/08/03 01:39:52;;;;;;;0.85;0.80;;;11.10;99.90;;;;;;5120571;27;20050;-66
2021/08/03 01:42:20;;;;;;;0.65;0.65;;;11.10;99.90;;;;;;5116228;27;20057;-66
2021/08/03 01:44:47;;;;;;;1.45;0.63;;;11.10;99.90;;;;;;5118998;27;20044;-66
2021/08/03 01:47:17;;;;;;;1.13;0.73;;;11.10;99.90;;;;;;5121035;27;20043;-66
2021/08/03 01:49:44;;;;;;;0.90;0.77;;;11.00;99.90;;;;;;5103000;28;20050;-66
2021/08/03 01:52:11;;;;;;;3.58;1.10;;;11.00;99.90;;;;;;5131211;27;20477;-66
2021/08/03 01:54:37;;;;;;;0.80;0.80;;;10.90;99.90;;;;;;5128643;27;20388;-66
2021/08/03 01:57:05;;;;;;;1.00;0.90;;;10.90;99.90;;;;;;5119655;27;20388;-66
2021/08/03 01:59:32;;;;;;;0.73;0.60;;;10.80;99.90;;;;;;5115463;27;20235;-66
2021/08/03 02:02:00;;;;;;;1.60;0.68;;;10.80;99.90;;;;;;5124270;28;20491;-66
2021/08/03 02:04:26;;;;;;;1.38;0.70;;;10.60;99.90;;;;;;5127848;27;20114;-66
2021/08/03 02:06:52;;;;;;;0.70;0.70;;;10.60;99.90;;;;;;5112546;28;20085;-66
2021/08/03 02:09:21;;;;;;;0.60;0.60;;;10.60;99.90;;;;;;5125251;27;20453;-66
2021/08/03 02:11:49;;;;;;;0.70;0.60;;;10.60;99.90;;;;;;5123189;28;20039;-66
2021/08/03 02:14:16;;;;;;;0.85;0.65;;;10.60;99.90;;;;;;5129886;27;20064;-66
2021/08/03 02:16:41;;;;;;;0.90;0.70;;;10.60;99.90;;;;;;5128891;27;20669;-66
2021/08/03 02:19:07;;;;;;;0.88;0.80;;;10.60;99.90;;;;;;5123284;28;20047;-66
2021/08/03 02:21:33;;;;;;;0.85;0.70;;;10.60;99.90;;;;;;5130648;27;20065;-66
2021/08/03 02:23:59;;;;;;;0.60;0.60;;;10.60;99.90;;;;;;5124221;27;20043;-66
2021/08/03 02:26:25;;;;;;;0.80;0.80;;;10.60;99.90;;;;;;5129408;27;20116;-66
2021/08/03 02:28:50;;;;;;;0.90;0.90;;;10.60;99.90;;;;;;5133572;27;20471;-66
2021/08/03 02:31:38;;;;;;;1.23;0.80;;;10.60;99.90;;;;;;5119222;27;20106;-66
2021/08/03 02:34:22;;;;;;;0.90;0.80;;;10.60;99.90;;;;;;5125002;27;20409;-66
2021/08/03 02:36:53;;;;;;;1.33;0.80;;;10.50;99.90;;;;;;5128830;27;20035;-66
2021/08/03 02:39:20;;;;;;;1.85;0.82;;;10.50;99.90;;;;;;5122644;27;20089;-66
2021/08/03 02:41:48;;;;;;;1.45;0.80;;;10.50;99.90;;;;;;5130129;27;20035;-66
2021/08/03 02:44:14;;;;;;;0.93;0.93;;;10.50;99.90;;;;;;5128987;27;20464;-66
2021/08/03 02:46:41;;;;;;;0.75;0.75;;;10.40;99.90;;;;;;5127339;27;20142;-66
2021/08/03 02:49:12;;;;;;;0.88;0.88;;;10.40;99.90;;;;;;5129891;27;20062;-66
2021/08/03 02:51:39;;;;;;;1.07;0.97;;;10.40;99.90;;;;;;5133830;27;20152;-66
2021/08/03 02:54:17;;;;;;;1.58;1.20;;;10.40;99.90;;;;;;5123678;27;20707;-66
2021/08/03 02:56:44;;;;;;;1.77;1.00;;;10.30;99.90;;;;;;5103679;28;20117;-66
2021/08/03 02:59:13;;;;;;;1.20;1.10;;;10.40;99.90;;;;;;5115170;27;20043;-66
2021/08/03 03:01:40;;;;;;;1.65;1.20;;;10.30;99.90;;;;;;5129643;27;20047;-66
2021/08/03 03:04:17;;;;;;;1.40;1.30;;;10.30;99.90;;;;;;5112179;27;20043;-66
2021/08/03 03:06:49;;;;;;;1.33;1.23;;;10.30;99.90;;;;;;5133075;27;20043;-66
2021/08/03 03:09:17;;;;;;;1.70;1.23;;;10.30;99.90;;;;;;5123014;27;20114;-66
2021/08/03 03:11:43;;;;;;;1.42;1.10;;;10.30;99.90;;;;;;5121324;27;20443;-66
2021/08/03 03:14:10;;;;;;;1.20;0.95;;;10.20;99.90;;;;;;5121373;27;20545;-66
2021/08/03 03:16:40;;;;;;;1.00;1.00;;;10.20;99.90;;;;;;5121566;27;20067;-66
2021/08/03 03:19:07;;;;;;;2.60;1.60;;;10.20;99.90;;;;;;5120647;27;20088;-66
2021/08/03 03:21:33;;;;;;;1.77;1.23;;;10.20;99.90;;;;;;5119640;27;20050;-66
2021/08/03 03:23:59;;;;;;;1.65;1.55;;;10.20;99.90;;;;;;5102179;27;20035;-66
2021/08/03 03:26:29;;;;;;;1.20;1.10;;;10.20;99.90;;;;;;5120116;27;20596;-66
2021/08/03 03:28:56;;;;;;;0.75;0.70;;;10.10;99.90;;;;;;5122473;27;20546;-66
2021/08/03 03:31:27;;;;;;;0.68;0.60;;;10.10;99.90;;;;;;5118822;27;20106;-66
2021/08/03 03:33:55;;;;;;;0.73;0.70;;;10.10;99.90;;;;;;5102398;27;20101;-66
2021/08/03 03:36:26;;;;;;;0.70;0.70;;;10.20;99.90;;;;;;5126981;27;20027;-66
2021/08/03 03:38:54;;;;;;;0.60;0.60;;;10.20;99.90;;;;;;5124965;27;20031;-66
2021/08/03 03:41:23;;;;;;;0.98;0.70;;;10.30;99.90;;;;;;5121498;27;20065;-66
2021/08/03 03:43:49;;;;;;;1.98;1.20;;;10.30;99.90;;;;;;5131476;27;20080;-66
2021/08/03 03:46:16;;;;;;;0.68;0.68;;;10.40;99.90;;;;;;5123818;27;20051;-66
2021/08/03 03:48:47;;;;;;;0.50;0.50;;;10.50;99.90;;;;;;5132395;27;20046;-66
2021/08/03 03:51:17;;;;;;;0.80;0.80;;;10.60;99.90;;;;;;5121107;27;20084;-66
2021/08/03 03:53:48;;;;;;;0.90;0.70;;;10.60;99.90;;;;;;5128832;27;20057;-66
2021/08/03 03:56:16;;;;;;;1.15;0.90;;;10.70;99.90;;;;;;5123610;27;20034;-66
2021/08/03 03:58:49;;;;;;;1.20;0.57;;;10.80;99.90;;;;;;5126248;27;20039;-66
2021/08/03 04:01:19;;;;;;;0.70;0.50;;;10.90;99.90;;;;;;5111641;27;20389;-66
2021/08/03 04:03:45;;;;;;;0.68;0.68;;;10.90;99.90;;;;;;5123940;27;20305;-66
2021/08/03 04:06:12;;;;;;;1.40;0.60;;;11.00;99.90;;;;;;5133113;27;20118;-66
2021/08/03 04:08:38;;;;;;;0.70;0.70;;;11.00;99.90;;;;;;5119073;27;20043;-66
2021/08/03 04:11:04;;;;;;;2.10;0.70;;;11.10;99.90;;;;;;5097500;27;20541;-66
2021/08/03 04:13:30;;;;;;;1.58;0.85;;;11.10;99.90;;;;;;5099434;27;20035;-66
2021/08/03 04:15:57;;;;;;;2.75;1.05;;;11.20;99.90;;;;;;5117242;27;20039;-66
2021/08/03 04:18:23;;;;;;;2.60;1.13;;;11.20;99.90;;;;;;5100464;27;20058;-66
2021/08/03 04:20:49;;;;;;;2.97;1.40;;;11.30;99.90;;;;;;5126983;27;20041;-66
2021/08/03 04:23:14;;;;;;;2.80;1.63;;;11.30;99.90;;;;;;5120270;27;20689;-66
2021/08/03 04:25:41;;;;;;;1.75;1.58;;;11.30;99.90;;;;;;5123894;27;20043;-66
2021/08/03 04:28:09;;;;;;;1.40;1.30;;;11.30;99.90;;;;;;5115654;27;20536;-66
2021/08/03 04:30:35;;;;;;;1.55;1.45;;;11.40;99.90;;;;;;5117573;27;20434;-66
2021/08/03 04:33:01;;;;;;;3.70;1.77;;;11.30;99.90;;;;;;5119433;27;20044;-66
2021/08/03 04:35:30;;;;;;;3.17;1.90;;;11.40;99.90;;;;;;5118245;27;20060;-66
2021/08/03 04:37:55;;;;;;;3.30;1.75;;;11.40;99.90;;;;;;5124614;27;20066;-66
2021/08/03 04:40:24;;;;;;;2.38;1.85;;;11.40;99.90;;;;;;5114951;27;20032;-66
2021/08/03 04:42:50;;;;;;;2.65;2.10;;;11.50;99.90;;;;;;5112988;27;20036;-66
2021/08/03 04:45:16;;;;;;;2.47;2.25;;;11.60;99.90;;;;;;5121381;27;20032;-66
2021/08/03 04:47:44;;;;;;;3.78;2.22;;;11.70;99.90;;;;;;5117620;27;20117;-66
2021/08/03 04:50:13;;;;;;;3.08;2.28;;;11.70;99.90;;;;;;5126357;27;20465;-66
2021/08/03 04:52:38;;;;;;;4.65;2.20;;;11.80;99.90;;;;;;5116355;27;20038;-66
2021/08/03 04:55:04;;;;;;;4.15;2.30;;;11.90;99.90;;;;;;5116794;27;20113;-66
2021/08/03 04:57:30;;;;;;;3.50;2.33;;;11.80;99.90;;;;;;5129722;27;20043;-66
2021/08/03 04:59:57;;;;;;;8.57;2.70;;;11.90;99.90;;;;;;5127203;27;20039;-66
2021/08/03 05:02:22;;;;;;;5.32;2.50;;;11.90;99.90;;;;;;5130374;27;20035;-66
2021/08/03 05:04:48;;;;;;;4.05;2.20;;;12.00;99.90;;;;;;5128486;27;20102;-66
2021/08/03 05:07:14;;;;;;;4.60;2.70;;;12.00;99.90;;;;;;5112001;28;20035;-66
2021/08/03 05:09:39;;;;;;;4.43;2.20;;;12.10;99.90;;;;;;5114583;27;20046;-66
2021/08/03 05:12:05;;;;;;;4.18;1.92;;;12.20;99.90;;;;;;5127262;27;20461;-66
2021/08/03 05:14:31;;;;;;;5.05;2.10;;;12.30;99.90;;;;;;5116685;27;20035;-66
2021/08/03 05:16:58;;;;;;;4.28;1.73;;;12.40;99.90;;;;;;5126777;27;20157;-66
2021/08/03 05:19:23;;;;;;;2.90;1.75;;;12.40;99.90;;;;;;5116056;28;20139;-66
2021/08/03 05:21:49;;;;;;;2.70;1.65;;;12.40;99.90;;;;;;5120155;28;20039;-66
2021/08/03 05:24:15;;;;;;;4.22;1.55;;;12.50;99.90;;;;;;5110534;28;20096;-66
2021/08/03 05:26:41;;;;;;;2.90;1.88;;;12.60;99.90;;;;;;5131072;28;20041;-66
2021/08/03 05:29:06;;;;;;;2.80;1.67;;;12.70;99.90;;;;;;5128755;28;20062;-66
2021/08/03 05:31:32;;;;;;;2.70;1.55;;;12.80;99.90;;;;;;5132381;28;20042;-66
2021/08/03 05:33:58;;;;;;;4.53;1.85;;;12.90;99.90;;;;;;5129899;27;20428;-66
2021/08/03 05:36:23;;;;;;;2.15;1.42;;;13.00;99.90;;;;;;5107489;28;20122;-66
2021/08/03 05:38:49;;;;;;;1.67;1.45;;;13.20;99.90;;;;;;5119140;27;20031;-66
2021/08/03 05:41:15;;;;;;;2.55;1.83;;;13.50;99.90;;;;;;5118374;28;20039;-66
2021/08/03 05:43:40;;;;;;;2.83;1.88;;;13.70;99.90;;;;;;5104995;28;20136;-66
2021/08/03 05:46:06;;;;;;;3.13;2.20;;;13.90;99.90;;;;;;5111958;28;20050;-66
2021/08/03 05:48:32;;;;;;;4.13;2.33;;;14.10;99.90;;;;;;5128851;27;20051;-65
2021/08/03 05:50:57;;;;;;;3.95;1.90;;;14.30;99.90;;;;;;5130985;27;20118;-66
2021/08/03 05:53:25;;;;;;;3.13;1.95;;;14.50;99.90;;;;;;5126436;27;20066;-66
2021/08/03 05:55:50;;;;;;;5.13;1.88;;;14.70;99.90;;;;;;5124894;27;20032;-65
2021/08/03 05:58:16;;;;;;;3.50;1.85;;;14.90;99.90;;;;;;5120198;27;20054;-66
2021/08/03 06:00:43;;;;;;;2.10;1.88;;;15.00;99.90;;;;;;5130623;27;20113;-65
2021/08/03 06:03:10;;;;;;;3.75;1.65;;;15.30;99.90;;;;;;5129962;27;20039;-65
2021/08/03 06:05:37;;;;;;;3.30;1.88;;;15.50;99.90;;;;;;5133873;27;20039;-66
2021/08/03 06:08:10;;;;;;;1.38;1.27;;;15.80;99.90;;;;;;5133676;27;20126;-66
2021/08/03 06:10:37;;;;;;;1.10;0.90;;;16.40;99.90;;;;;;5130933;27;22945;-66
2021/08/03 06:13:04;;;;;;;2.33;1.35;;;17.30;99.90;;;;;;5123435;27;20032;-66
2021/08/03 06:15:37;;;;;;;2.15;1.45;;;18.10;99.90;;;;;;5122121;27;20037;-69
2021/08/03 06:18:10;;;;;;;3.63;1.48;;;18.80;99.90;;;;;;5122936;27;20088;-72
2021/08/03 06:20:39;;;;;;;1.92;1.33;;;19.20;99.90;;;;;;5098841;28;20039;-72
2021/08/03 06:23:05;;;;;;;1.63;1.30;;;19.80;99.90;;;;;;5125327;27;20080;-74
2021/08/03 06:25:32;;;;;;;2.53;1.27;;;20.40;99.90;;;;;;5127658;27;20036;-74
2021/08/03 06:28:00;;;;;;;3.70;1.50;;;21.10;99.90;;;;;;5121210;27;20059;-74
2021/08/03 06:30:26;;;;;;;1.63;1.35;;;21.30;99.90;;;;;;5131296;27;20059;-74
2021/08/03 06:32:53;;;;;;;1.30;1.13;;;21.60;99.90;;;;;;5133794;27;20070;-74
2021/08/03 06:35:20;;;;;;;1.98;1.30;;;22.10;99.90;;;;;;5134953;27;20039;-74
2021/08/03 06:37:46;;;;;;;2.47;1.20;;;22.90;99.80;;;;;;5135051;27;20039;-74
2021/08/03 06:40:11;;;;;;;1.80;1.00;;;23.70;97.60;;;;;;5116382;27;20122;-74
2021/08/03 06:42:49;;;;;;;1.92;0.80;;;24.50;97.20;;;;;;5125098;27;20042;-71
2021/08/03 06:45:18;;;;;;;3.75;0.90;;;25.00;93.50;;;;;;5129466;27;20119;-71
2021/08/03 06:48:15;;;;;;;1.60;1.00;;;25.40;94.30;;;;;;5130201;27;20540;-71
2021/08/03 06:50:44;;;;;;;2.72;0.70;;;25.70;91.30;;;;;;5096237;28;20177;-71
2021/08/03 06:53:12;;;;;;;0.93;0.50;;;26.00;94.00;;;;;;5114215;28;20047;-71
2021/08/03 06:55:42;;;;;;;2.95;0.82;;;26.30;92.70;;;;;;5117743;27;20118;-71
2021/08/03 06:58:12;;;;;;;2.13;0.70;;;26.50;90.60;;;;;;5118419;27;20036;-71
2021/08/03 07:00:41;;;;;;;2.03;0.80;;;26.80;91.10;;;;;;5093479;27;20092;-71
2021/08/03 07:03:08;;;;;;;1.65;0.70;;;27.20;90.80;;;;;;5133909;27;20117;-71
2021/08/03 07:05:42;;;;;;;0.75;0.47;;;27.10;89.90;;;;;;5133631;27;20035;-71
2021/08/03 07:08:09;;;;;;;2.42;0.70;;;27.20;89.50;;;;;;5133956;27;20172;-71
2021/08/03 07:10:37;;;;;;;0.85;0.50;;;27.20;87.90;;;;;;5133270;27;20110;-71
2021/08/03 07:13:03;;;;;;;0.93;0.50;;;27.30;87.40;;;;;;5133516;27;20038;-71
2021/08/03 07:15:28;;;;;;;3.15;0.68;;;27.50;86.50;;;;;;5114249;27;20050;-71
2021/08/03 07:17:55;;;;;;;1.15;0.50;;;27.60;83.70;;;;;;5133641;27;20133;-71
2021/08/03 07:20:23;;;;;;;3.63;0.90;;;27.60;81.80;;;;;;5122206;27;20614;-71
2021/08/03 07:22:49;;;;;;;2.28;0.70;;;26.90;81.00;;;;;;5127289;27;20463;-70
2021/08/03 07:25:17;;;;;;;1.25;0.90;;;25.30;80.20;;;;;;5131879;27;20046;-71
2021/08/03 07:27:42;;;;;;;2.53;0.68;;;26.30;84.60;;;;;;5114447;27;20050;-71
2021/08/03 07:30:10;;;;;;;2.97;0.70;;;27.20;84.30;;;;;;5133005;27;20038;-71
2021/08/03 07:32:36;;;;;;;1.40;0.52;;;27.90;83.10;;;;;;5131786;27;20089;-71
2021/08/03 07:35:04;;;;;;;1.73;0.60;;;28.40;77.20;;;;;;5107780;27;20058;-71
2021/08/03 07:37:31;;;;;;;1.00;0.70;;;28.80;76.30;;;;;;5126245;27;20118;-71
2021/08/03 07:39:57;;;;;;;2.05;0.70;;;28.80;71.30;;;;;;5130645;27;20096;-71
2021/08/03 07:42:22;;;;;;;1.25;0.70;;;27.10;67.10;;;;;;5119459;27;20765;-71
2021/08/03 07:44:48;;;;;;;2.20;0.70;;;26.90;75.00;;;;;;5119926;27;20036;-71
2021/08/03 07:47:14;;;;;;;1.15;0.60;;;27.10;77.20;;;;;;5113118;28;20047;-71
2021/08/03 07:49:40;;;;;;;1.20;0.60;;;27.60;74.00;;;;;;5113111;28;20047;-71
2021/08/03 07:52:07;;;;;;;1.65;0.90;;;28.00;71.00;;;;;;5121110;27;20043;-71
2021/08/03 07:54:32;;;;;;;2.17;0.95;;;28.40;69.90;;;;;;5133877;27;20039;-71
2021/08/03 07:56:58;;;;;;;1.25;0.70;;;28.70;67.60;;;;;;5133571;27;20487;-71
2021/08/03 07:59:24;;;;;;;1.38;0.90;;;28.60;67.90;;;;;;5132258;27;20123;-71
2021/08/03 08:01:50;;;;;;;0.60;0.60;;;28.70;66.90;;;;;;5133524;27;20125;-71
2021/08/03 08:04:15;;;;;;;2.05;0.88;;;28.60;66.10;;;;;;5115436;27;20057;-71
2021/08/03 08:06:41;;;;;;;1.75;0.70;;;27.50;63.10;;;;;;5133414;27;20099;-71
2021/08/03 08:09:07;;;;;;;1.88;0.75;;;27.30;67.40;;;;;;5133391;27;20519;-71
2021/08/03 08:11:32;;;;;;;0.93;0.70;;;26.40;69.30;;;;;;5133312;27;20031;-71
2021/08/03 08:13:58;;;;;;;1.50;0.88;;;25.70;72.10;;;;;;5133497;27;20472;-71
2021/08/03 08:16:24;;;;;;;1.20;0.60;;;24.60;71.80;;;;;;5113570;27;20094;-71
2021/08/03 08:18:50;;;;;;;2.85;0.60;;;23.40;76.40;;;;;;5133395;27;20393;-71
2021/08/03 08:21:16;;;;;;;0.63;0.50;;;22.80;80.20;;;;;;5133203;27;20065;-71
2021/08/03 08:23:42;;;;;;;1.00;0.70;;;23.00;82.60;;;;;;5132439;27;20036;-71
2021/08/03 08:26:07;;;;;;;1.20;0.70;;;22.90;84.20;;;;;;5113039;27;20038;-71
2021/08/03 08:28:33;;;;;;;1.17;0.60;;;22.70;81.80;;;;;;5133165;27;20456;-71
2021/08/03 08:30:59;;;;;;;0.80;0.60;;;21.90;85.30;;;;;;5111007;27;20061;-71
2021/08/03 08:33:25;;;;;;;1.38;0.60;;;21.50;88.60;;;;;;5128118;27;20304;-71
2021/08/03 08:35:50;;;;;;;1.60;0.60;;;21.40;90.60;;;;;;5108209;27;20092;-71
2021/08/03 08:38:16;;;;;;;2.13;0.80;;;20.70;92.00;;;;;;5127147;27;20066;-71
2021/08/03 08:40:42;;;;;;;0.90;0.50;;;20.60;93.20;;;;;;5112456;28;20446;-71
2021/08/03 08:43:15;;;;;;;1.58;0.50;;;20.80;94.20;;;;;;5126423;27;20465;-71
2021/08/03 08:45:45;;;;;;;1.40;0.63;;;20.60;94.30;;;;;;5122457;27;20073;-71
2021/08/03 08:48:12;;;;;;;1.33;0.82;;;20.40;93.90;;;;;;5129977;27;20062;-71
2021/08/03 08:50:38;;;;;;;1.48;0.60;;;20.50;94.70;;;;;;5130239;27;20038;-71
2021/08/03 08:53:04;;;;;;;2.22;0.80;;;20.60;94.50;;;;;;5131713;27;20042;-71
2021/08/03 08:55:29;;;;;;;1.70;0.77;;;20.40;94.90;;;;;;5122561;27;20044;-71
2021/08/03 08:57:55;;;;;;;1.95;0.65;;;20.50;95.30;;;;;;5120585;27;20032;-71
2021/08/03 09:00:22;;;;;;;1.48;0.50;;;20.50;94.90;;;;;;5126199;27;20062;-71
2021/08/03 09:02:53;;;;;;;2.72;0.73;;;20.60;95.40;;;;;;5132514;22;20059;-67
2021/08/03 09:05:45;;;;;;;1.38;0.60;;;20.70;95.20;;;;;;5132235;27;20031;-67
2021/08/03 09:08:11;;;;;;;1.77;0.70;;;20.90;95.20;;;;;;5127962;27;20123;-67
2021/08/03 09:10:40;;;;;;;3.58;0.70;;;20.80;95.10;;;;;;5132437;27;20039;-67
2021/08/03 09:13:10;;;;;;;2.13;0.60;;;20.90;94.60;;;;;;5132076;27;20248;-67
2021/08/03 09:15:39;;;;;;;2.58;0.80;;;20.90;94.30;;;;;;5132292;27;20035;-67
2021/08/03 09:18:08;;;;;;;1.60;0.60;;;20.90;94.70;;;;;;5131852;27;20039;-66
2021/08/03 09:20:34;;;;;;;2.47;0.80;;;21.00;94.90;;;;;;5112496;27;20073;-67
2021/08/03 09:23:01;;;;;;;2.00;0.50;;;21.10;94.70;;;;;;5131995;28;20043;-67
2021/08/03 09:25:26;;;;;;;0.82;0.70;;;21.10;94.90;;;;;;5131491;28;20035;-67
2021/08/03 09:27:52;;;;;;;1.67;0.80;;;21.00;94.10;;;;;;5130968;28;20043;-67
2021/08/03 09:30:18;;;;;;;0.82;0.65;;;21.10;94.20;;;;;;5113731;28;20035;-67
2021/08/03 09:32:48;;;;;;;0.77;0.75;;;21.00;93.80;;;;;;5129563;28;20508;-66
2021/08/03 09:35:15;;;;;;;2.30;0.90;;;21.20;93.20;;;;;;5130706;27;20135;-67
2021/08/03 09:37:43;;;;;;;2.30;0.70;;;21.00;91.90;;;;;;5134924;27;20039;-66
2021/08/03 09:40:22;;;;;;;1.80;0.80;;;21.20;92.00;;;;;;5135839;27;20476;-67
2021/08/03 09:43:08;;;;;;;1.58;0.80;;;21.40;91.50;;;;;;5117210;27;20047;-67
2021/08/03 09:45:43;;;;;;;2.25;0.80;;;21.50;91.80;;;;;;5135652;27;20459;-67
2021/08/03 09:48:17;;;;;;;0.75;0.60;;;21.50;91.40;;;;;;5135937;27;20419;-67
2021/08/03 09:50:59;;;;;;;2.00;0.80;;;21.70;91.80;;;;;;5117547;27;20062;-67
2021/08/03 09:53:44;;;;;;;;;;;21.50;87.80;;;;;;5135341;27;20506;-67
2021/08/03 09:56:35;;;;;;;0.95;0.63;;;21.70;92.30;;;;;;5131395;27;19916;-67
2021/08/03 09:59:05;;;;;;;2.50;1.10;;;21.70;90.20;;;;;;5106882;27;20469;-67
2021/08/03 10:01:36;;;;;;;1.73;0.80;;;21.60;87.60;;;;;;5127422;27;20134;-67
2021/08/03 10:04:07;;;;;;;1.90;0.93;;;21.30;83.90;;;;;;5135865;27;20490;-67
2021/08/03 10:06:34;;;;;;;1.25;0.90;;;21.10;87.70;;;;;;5135890;27;20074;-67
2021/08/03 10:09:01;;;;;;;1.50;0.82;;;20.90;87.50;;;;;;5115915;27;20044;-67
2021/08/03 10:11:27;;;;;;;2.67;1.15;;;21.20;88.70;;;;;;5135602;27;20043;-67
2021/08/03 10:13:55;;;;;;;1.48;0.88;;;21.40;90.70;;;;;;5135433;27;20125;-67
2021/08/03 10:16:21;;;;;;;2.03;0.98;;;21.30;87.00;;;;;;5135668;27;20679;-67
2021/08/03 10:18:50;;;;;;;1.15;0.60;;;21.40;89.80;;;;;;5116926;27;20426;-67
2021/08/03 10:21:28;;;;;;;1.48;0.80;;;21.40;88.20;;;;;;5135526;27;20031;-67
2021/08/03 10:24:02;;;;;;;1.17;0.77;;;21.40;91.30;;;;;;5135369;27;20039;-67
2021/08/03 10:26:28;;;;;;;1.63;0.77;;;21.50;91.30;;;;;;5114971;27;20464;-67
2021/08/03 10:29:24;;;;;;;1.45;0.88;;;21.70;91.10;;;;;;5134389;27;20092;-67
2021/08/03 10:31:51;;;;;;;3.03;1.30;;;21.90;86.30;;;;;;5125198;27;20085;-67
2021/08/03 10:34:41;;;;;;;1.02;0.73;;;22.00;90.10;;;;;;5134838;27;20039;-67
2021/08/03 10:37:07;;;;;;;1.80;0.65;;;21.90;86.20;;;;;;5116968;27;20043;-67
2021/08/03 10:39:56;;;;;;;2.00;0.70;;;22.10;89.90;;;;;;5116493;27;20065;-67
2021/08/03 10:42:27;;;;;;;1.60;0.70;;;22.20;87.50;;;;;;5134996;27;20078;-67
2021/08/03 10:44:58;;;;;;;1.85;0.95;;;22.50;81.60;;;;;;5134881;27;20071;-67
2021/08/03 10:47:33;;;;;;;2.00;0.95;;;22.30;80.50;;;;;;5133992;27;20091;-67
2021/08/03 10:50:01;;;;;;;1.05;0.68;;;22.30;79.60;;;;;;5114092;27;20492;-67
2021/08/03 10:52:49;;;;;;;0.95;0.73;;;22.30;85.70;;;;;;5134675;27;20035;-67
2021/08/03 10:55:36;;;;;;;1.05;0.80;;;22.30;81.40;;;;;;5114631;27;20046;-67
2021/08/03 10:58:11;;;;;;;2.10;0.85;;;22.20;86.70;;;;;;5133638;27;20073;-67
2021/08/03 11:01:00;;;;;;;1.02;0.68;;;22.10;76.20;;;;;;5133692;27;20066;-67
2021/08/03 11:03:35;;;;;;;2.42;0.80;;;22.00;79.70;;;;;;5132399;27;20531;-67
2021/08/03 11:06:04;;;;;;;2.95;1.00;;;22.00;75.60;;;;;;5134389;27;20127;-67
2021/08/03 11:08:31;;;;;;;3.33;0.95;;;21.80;77.90;;;;;;5134407;27;20483;-67
2021/08/03 11:11:05;;;;;;;1.48;1.02;;;21.90;80.80;;;;;;5131891;27;20050;-67
2021/08/03 11:13:45;;;;;;;2.15;0.75;;;22.00;85.10;;;;;;5122128;27;20085;-67
2021/08/03 11:16:23;;;;;;;1.77;1.10;;;21.90;79.60;;;;;;5132759;27;20464;-67
2021/08/03 11:18:58;;;;;;;1.10;0.70;;;21.60;75.80;;;;;;5134130;27;20039;-67
2021/08/03 11:21:25;;;;;;;2.35;0.90;;;21.50;76.30;;;;;;5134265;27;20049;-67
2021/08/03 11:24:13;;;;;;;1.13;0.70;;;21.20;76.90;;;;;;5134318;27;20027;-67
2021/08/03 11:26:54;;;;;;;1.00;0.80;;;21.40;78.80;;;;;;5134116;27;20112;-67
2021/08/03 11:29:26;;;;;;;2.28;0.75;;;21.90;85.30;;;;;;5132694;27;20123;-67
2021/08/03 11:32:00;;;;;;;0.95;0.70;;;21.80;84.10;;;;;;5134000;27;20043;-67
2021/08/03 11:34:28;;;;;;;1.25;0.65;;;21.80;84.20;;;;;;5121070;27;20037;-67
2021/08/03 11:37:02;;;;;;;1.33;0.98;;;21.90;86.50;;;;;;5133720;27;20143;-67
2021/08/03 11:39:30;;;;;;;1.65;0.70;;;22.10;87.20;;;;;;5133797;27;20035;-67
2021/08/03 11:41:56;;;;;;;1.73;0.80;;;21.70;83.10;;;;;;5115524;27;20110;-67
2021/08/03 11:44:22;;;;;;;1.00;0.88;;;22.00;86.60;;;;;;5115346;27;20184;-67
2021/08/03 11:47:06;;;;;;;0.85;0.80;;;22.20;85.90;;;;;;5133958;27;20042;-67
2021/08/03 11:49:34;;;;;;;0.93;0.70;;;22.20;83.50;;;;;;5115268;27;20168;-67
2021/08/03 11:52:20;;;;;;;1.13;0.85;;;22.30;87.80;;;;;;5132579;27;20035;-67
2021/08/03 11:54:54;;;;;;;1.52;0.90;;;21.80;84.50;;;;;;5133583;27;20392;-67
2021/08/03 11:57:24;;;;;;;0.73;0.60;;;22.00;85.00;;;;;;5133318;27;20035;-67
2021/08/03 11:59:59;;;;;;;1.88;1.00;;;22.20;86.10;;;;;;5131849;27;20126;-67
2021/08/03 12:02:25;;;;;;;1.98;0.77;;;22.30;84.30;;;;;;5097655;27;20051;-67
2021/08/03 12:05:06;;;;;;;2.28;0.90;;;22.30;86.50;;;;;;5133205;27;20038;-67
2021/08/03 12:07:32;;;;;;;0.80;0.63;;;22.30;79.10;;;;;;5130222;27;20038;-67
2021/08/03 12:09:57;;;;;;;1.60;0.93;;;22.30;86.10;;;;;;5132911;27;20039;-67
2021/08/03 12:12:23;;;;;;;1.00;0.90;;;22.30;86.60;;;;;;5133036;27;20438;-67
2021/08/03 12:14:48;;;;;;;1.58;0.88;;;22.00;83.10;;;;;;5133253;27;20088;-67
2021/08/03 12:17:41;;;;;;;1.63;0.93;;;22.10;83.10;;;;;;5131745;27;20084;-67
2021/08/03 12:20:32;;;;;;;1.20;0.85;;;22.50;82.70;;;;;;5128426;27;20147;-67
2021/08/03 12:23:31;;;;;;;1.30;0.80;;;22.80;79.80;;;;;;5133191;27;20067;-67
2021/08/03 12:26:02;;;;;;;2.78;0.95;;;22.70;73.70;;;;;;5092581;27;20043;-67
2021/08/03 12:28:39;;;;;;;1.40;1.00;;;22.90;80.10;;;;;;5112631;27;20042;-67
2021/08/03 12:31:20;;;;;;;0.82;0.70;;;22.60;77.10;;;;;;5130385;27;20027;-67
2021/08/03 12:33:47;;;;;;;1.08;0.75;;;22.90;79.90;;;;;;5108426;27;20392;-67
2021/08/03 12:36:15;;;;;;;1.35;0.90;;;22.60;77.10;;;;;;5132846;27;20760;-67
2021/08/03 12:39:02;;;;;;;1.40;0.70;;;22.70;78.10;;;;;;5132801;27;20088;-67
2021/08/03 12:41:30;;;;;;;1.25;0.88;;;22.20;77.90;;;;;;5132477;27;20050;-67
2021/08/03 12:43:57;;;;;;;1.58;0.88;;;22.40;81.10;;;;;;5132799;27;20123;-67
2021/08/03 12:46:38;;;;;;;1.50;0.93;;;22.60;82.80;;;;;;5132713;27;20035;-67
2021/08/03 12:49:07;;;;;;;1.20;0.90;;;22.30;76.60;;;;;;5130814;27;20061;-67
2021/08/03 12:51:34;;;;;;;1.13;0.70;;;22.50;82.50;;;;;;5132263;27;20095;-67
2021/08/03 12:54:29;;;;;;;2.55;1.23;;;22.70;85.70;;;;;;5132650;27;20023;-67
2021/08/03 12:57:03;;;;;;;1.98;1.00;;;22.80;83.50;;;;;;5110238;27;20047;-63
2021/08/03 12:59:44;;;;;;;2.45;0.93;;;23.00;87.90;;;;;;5131309;27;20043;-63
2021/08/03 13:02:15;;;;;;;0.93;0.80;;;22.70;78.50;;;;;;5131831;27;20184;-63